^^
Station Historical Data
Daily Summary for July 23, 2017 Units:  Metric    English   Both
« Previous Day
Next Day »
Daily Weekly Monthly Yearly Custom
  High: Low: Average:
Temperature: 22.8 °C 1 °C 10.6 °C
Dew Point: 2 °C -9.8 °C -2.3 °C
Humidity: 87% 12% 49%
Wind Speed: 11.1km/h 0km/h 0.8km/h
Wind Gust: 14.5km/h - -
Wind- - WSW
Pressure: 1023.9 hPa 1019.2 hPa -
Precipitation: 0 mm    
Historical Graphs
 
 
Tabular Data for July 23, 2017
Time Temperature Dew Point Pressure Wind Wind Speed Wind Gust Humidity Rainfall Rate (Hourly) solar Conditions
00:03 8 °C -1.5 °C 1019.5 hPa Calm     51% 0 mm 0.0 W/m2
00:08 7.6 °C -1.6 °C 1019.5 hPa Calm     52% 0 mm 0.0 W/m2
00:14 7.4 °C -1.1 °C 1019.5 hPa Calm     55% 0 mm 0.0 W/m2
00:19 7.3 °C -1.1 °C 1019.5 hPa Calm     55% 0 mm 0.0 W/m2
00:25 7.1 °C -1.3 °C 1019.5 hPa Calm     55% 0 mm 0.0 W/m2
00:30 6.9 °C -1.5 °C 1019.5 hPa Calm     55% 0 mm 0.0 W/m2
00:40 6.6 °C -1.1 °C 1019.5 hPa Calm     58% 0 mm 0.0 W/m2
00:45 6.4 °C -1 °C 1019.5 hPa Calm     59% 0 mm 0.0 W/m2
00:50 6.2 °C -1.5 °C 1019.5 hPa Calm     58% 0 mm 0.0 W/m2
00:55 6.1 °C -1.5 °C 1019.5 hPa Calm     58% 0 mm 0.0 W/m2
01:00 5.8 °C -1.4 °C 1019.5 hPa Calm     60% 0 mm 0.0 W/m2
01:05 5.6 °C -1.3 °C 1019.5 hPa Calm     61% 0 mm 0.0 W/m2
01:16 5.6 °C -0.9 °C 1019.2 hPa Calm     63% 0 mm 0.0 W/m2
01:21 5.4 °C -0.9 °C 1019.5 hPa Calm     64% 0 mm 0.0 W/m2
01:26 5.4 °C -0.7 °C 1019.5 hPa Calm     65% 0 mm 0.0 W/m2
01:31 5.3 °C -0.5 °C 1019.5 hPa Calm     66% 0 mm 0.0 W/m2
01:36 5.3 °C -0.3 °C 1019.5 hPa Calm     67% 0 mm 0.0 W/m2
01:41 5.3 °C -0.5 °C 1019.2 hPa Calm     66% 0 mm 0.0 W/m2
01:46 5.2 °C -0.8 °C 1019.2 hPa Calm     65% 0 mm 0.0 W/m2
01:52 5.1 °C -0.5 °C 1019.2 hPa Calm     67% 0 mm 0.0 W/m2
01:57 4.9 °C -0.7 °C 1019.2 hPa Calm     67% 0 mm 0.0 W/m2
02:02 4.8 °C -0.4 °C 1019.2 hPa Calm     69% 0 mm 0.0 W/m2
02:07 4.8 °C 0.2 °C 1019.5 hPa Calm     72% 0 mm 0.0 W/m2
02:12 4.8 °C 0.2 °C 1019.5 hPa Calm     72% 0 mm 0.0 W/m2
02:22 4.8 °C 0.2 °C 1019.2 hPa Calm     72% 0 mm 0.0 W/m2
02:28 4.7 °C -0.1 °C 1019.5 hPa Calm     71% 0 mm 0.0 W/m2
02:33 4.6 °C 0 °C 1019.5 hPa Calm     72% 0 mm 0.0 W/m2
02:43 4.4 °C 0 °C 1019.2 hPa Calm     73% 0 mm 0.0 W/m2
02:48 4.2 °C 0 °C 1019.2 hPa Calm     74% 0 mm 0.0 W/m2
02:53 4.2 °C 0.2 °C 1019.2 hPa Calm     75% 0 mm 0.0 W/m2
03:04 4.2 °C 0.5 °C 1019.5 hPa Calm     77% 0 mm 0.0 W/m2
03:09 4.3 °C 1 °C 1019.5 hPa Calm     79% 0 mm 0.0 W/m2
03:14 4.6 °C 1.1 °C 1019.2 hPa Calm     78% 0 mm 0.0 W/m2
03:19 4.7 °C 1 °C 1019.5 hPa Calm     77% 0 mm 0.0 W/m2
03:24 4.7 °C 0.8 °C 1019.2 hPa Calm     76% 0 mm 0.0 W/m2
03:29 4.4 °C 0.4 °C 1019.2 hPa Calm     75% 0 mm 0.0 W/m2
03:34 4.3 °C 0.8 °C 1019.2 hPa Calm     78% 0 mm 0.0 W/m2
03:39 4.1 °C 0.3 °C 1019.5 hPa Calm     76% 0 mm 0.0 W/m2
03:45 4 °C 0.5 °C 1019.5 hPa Calm     78% 0 mm 0.0 W/m2
03:50 4 °C 0.7 °C 1019.5 hPa Calm     79% 0 mm 0.0 W/m2
03:55 4.2 °C 1.1 °C 1019.5 hPa Calm     80% 0 mm 0.0 W/m2
04:00 4.2 °C 0.7 °C 1019.5 hPa Calm     78% 0 mm 0.0 W/m2
04:06 4 °C 0.7 °C 1019.5 hPa Calm     79% 0 mm 0.0 W/m2
04:11 4.1 °C 1.1 °C 1019.5 hPa Calm     81% 0 mm 0.0 W/m2
04:16 4.2 °C 1.2 °C 1019.5 hPa Calm     81% 0 mm 0.0 W/m2
04:22 4.1 °C 1 °C 1019.5 hPa Calm     80% 0 mm 0.0 W/m2
04:27 3.9 °C 0.6 °C 1019.5 hPa Calm     79% 0 mm 0.0 W/m2
04:32 3.7 °C 0.4 °C 1019.5 hPa Calm     79% 0 mm 0.0 W/m2
04:38 3.5 °C 0.5 °C 1019.5 hPa Calm     81% 0 mm 0.0 W/m2
04:48 3.4 °C 0.8 °C 1019.9 hPa Calm     83% 0 mm 0.0 W/m2
04:53 3.5 °C 0.9 °C 1020.2 hPa Calm     83% 0 mm 0.0 W/m2
04:58 3.4 °C 0.8 °C 1020.2 hPa Calm     83% 0 mm 0.0 W/m2
05:04 3.4 °C 1 °C 1020.2 hPa Calm     84% 0 mm 0.0 W/m2
05:09 3.6 °C 1.3 °C 1020.2 hPa Calm     85% 0 mm 0.0 W/m2
05:14 3.4 °C 0.6 °C 1020.2 hPa Calm     82% 0 mm 0.0 W/m2
05:19 3.2 °C 0.6 °C 1020.5 hPa Calm     83% 0 mm 0.0 W/m2
05:24 3.1 °C 0.5 °C 1020.5 hPa Calm     83% 0 mm 0.0 W/m2
05:29 3.1 °C 0.8 °C 1020.5 hPa Calm     85% 0 mm 0.0 W/m2
05:34 3.2 °C 1.1 °C 1020.5 hPa Calm     86% 0 mm 0.0 W/m2
05:39 3.2 °C 1.1 °C 1020.5 hPa Calm     86% 0 mm 0.0 W/m2
05:45 3.2 °C 1.1 °C 1020.5 hPa Calm     86% 0 mm 0.0 W/m2
05:50 3.2 °C 0.9 °C 1020.9 hPa Calm     85% 0 mm 0.0 W/m2
05:55 2.9 °C 0.3 °C 1020.9 hPa Calm     83% 0 mm 0.0 W/m2
06:00 2.7 °C 0.3 °C 1020.9 hPa Calm     84% 0 mm 0.0 W/m2
06:06 2.8 °C 0.9 °C 1020.9 hPa Calm     87% 0 mm 0.0 W/m2
06:11 2.6 °C 0.3 °C 1020.9 hPa Calm     85% 0 mm 0.0 W/m2
06:16 2.4 °C -0.2 °C 1020.9 hPa Calm     83% 0 mm 0.0 W/m2
06:21 2.2 °C -0.1 °C 1021.2 hPa Calm     85% 0 mm 0.0 W/m2
06:26 2.2 °C 0.1 °C 1021.2 hPa Calm     86% 0 mm 0.0 W/m2
06:32 2.1 °C -0.2 °C 1021.2 hPa Calm     85% 0 mm 0.0 W/m2
06:37 1.8 °C -0.6 °C 1021.2 hPa Calm     84% 0 mm 5.0 W/m2
06:42 1.6 °C -1 °C 1021.2 hPa Calm     83% 0 mm 7.0 W/m2
06:48 1.3 °C -1.6 °C 1021.6 hPa Calm     81% 0 mm 9.0 W/m2
06:53 1.1 °C -2 °C 1021.6 hPa Calm     80% 0 mm 11.0 W/m2
06:59 1 °C -2.4 °C 1021.6 hPa Calm     78% 0 mm 12.0 W/m2
07:10 1 °C -2.6 °C 1021.6 hPa Calm     77% 0 mm 16.0 W/m2
07:17 1.2 °C -2.4 °C 1021.9 hPa Calm     77% 0 mm 18.0 W/m2
07:45 3.2 °C -0.6 °C 1022.2 hPa Calm     76% 0 mm 146.0 W/m2
07:57 4.8 °C -0.4 °C 1022.2 hPa Calm     69% 0 mm 200.0 W/m2
08:23 8.2 °C -0.6 °C 1022.6 hPa Calm     54% 0 mm 290.0 W/m2
08:55 10.8 °C 1.6 °C 1023.2 hPa Calm     53% 0 mm 374.0 W/m2
09:05 11.8 °C 2 °C 1023.2 hPa Calm     51% 0 mm 399.0 W/m2
09:12 12.3 °C 1.9 °C 1023.6 hPa Calm     49% 0 mm 425.0 W/m2
09:21 12.9 °C 1.2 °C 1023.6 hPa Calm     45% 0 mm 450.0 W/m2
09:26 13 °C 0 °C 1023.6 hPa SW 1.4 km/h 9.7 km/h 41% 0 mm 457.0 W/m2
09:31 13.2 °C 0.2 °C 1023.6 hPa Calm   6.4 km/h 41% 0 mm 469.0 W/m2
09:36 13.2 °C 0.6 °C 1023.6 hPa SW 4.7 km/h 9.7 km/h 42% 0 mm 482.0 W/m2
09:46 13.8 °C 0.1 °C 1023.6 hPa SW 1.4 km/h 9.7 km/h 39% 0 mm 503.0 W/m2
09:51 13.8 °C -0.3 °C 1023.6 hPa SW 6.4 km/h 8 km/h 38% 0 mm 513.0 W/m2
09:56 14.1 °C 0 °C 1023.6 hPa SW 7.9 km/h 9.7 km/h 38% 0 mm 520.0 W/m2
10:02 13.9 °C -0.6 °C 1023.9 hPa Calm   9.7 km/h 37% 0 mm 531.0 W/m2
10:07 14.1 °C -0.4 °C 1023.9 hPa Calm   4.8 km/h 37% 0 mm 541.0 W/m2
10:12 14.2 °C -1.1 °C 1023.9 hPa SW 3.2 km/h 9.7 km/h 35% 0 mm 550.0 W/m2
10:17 14.3 °C -0.2 °C 1023.9 hPa Calm   6.4 km/h 37% 0 mm 561.0 W/m2
10:27 14.8 °C -0.1 °C 1023.9 hPa Calm     36% 0 mm 575.0 W/m2
10:32 15 °C 0 °C 1023.9 hPa SW 1.4 km/h 6.4 km/h 36% 0 mm 580.0 W/m2
10:37 15.2 °C 0.2 °C 1023.9 hPa SW 7.9 km/h 8 km/h 36% 0 mm 587.0 W/m2
10:42 15.3 °C -0.9 °C 1023.9 hPa Calm   8 km/h 33% 0 mm 591.0 W/m2
10:47 15.4 °C -0.8 °C 1023.6 hPa Calm   9.7 km/h 33% 0 mm 601.0 W/m2
10:52 15.6 °C -1.5 °C 1023.6 hPa Calm   8 km/h 31% 0 mm 603.0 W/m2
10:57 15.8 °C -1.7 °C 1023.6 hPa SW 3.2 km/h 8 km/h 30% 0 mm 610.0 W/m2
11:02 16 °C -2.5 °C 1023.6 hPa SW 6.4 km/h 9.7 km/h 28% 0 mm 615.0 W/m2
11:07 16.2 °C -2.8 °C 1023.6 hPa Calm   11.3 km/h 27% 0 mm 619.0 W/m2
11:18 16.4 °C -2.7 °C 1023.2 hPa WSW 6.4 km/h 11.3 km/h 27% 0 mm 626.0 W/m2
11:33 16.7 °C -1.9 °C 1023.2 hPa WSW 3.2 km/h 3.2 km/h 28% 0 mm 633.0 W/m2
11:38 17 °C -1.6 °C 1023.2 hPa WSW 9.7 km/h 9.7 km/h 28% 0 mm 633.0 W/m2
11:45 17.1 °C -1.6 °C 1023.2 hPa Calm   11.3 km/h 28% 0 mm 635.0 W/m2
12:17 18 °C -1.8 °C 1022.9 hPa Calm   4.8 km/h 26% 0 mm 633.0 W/m2
12:26 18.4 °C -2 °C 1022.6 hPa WSW 7.9 km/h 8 km/h 25% 0 mm 629.0 W/m2
12:31 18.4 °C -1.5 °C 1022.6 hPa WSW 6.4 km/h 9.7 km/h 26% 0 mm 626.0 W/m2
12:46 18.8 °C -2.2 °C 1022.2 hPa Calm   8 km/h 24% 0 mm 615.0 W/m2
12:56 19.2 °C -3.7 °C 1021.9 hPa Calm   12.9 km/h 21% 0 mm 606.0 W/m2
13:01 19.2 °C -3 °C 1021.9 hPa Calm   3.2 km/h 22% 0 mm 601.0 W/m2
13:11 19.7 °C -2.6 °C 1021.6 hPa WSW 11.1 km/h 12.9 km/h 22% 0 mm 589.0 W/m2
13:20 19.9 °C -3.1 °C 1021.2 hPa WSW 7.9 km/h 12.9 km/h 21% 0 mm 577.0 W/m2
13:25 20 °C -2.4 °C 1021.2 hPa WSW 3.2 km/h 9.7 km/h 22% 0 mm 570.0 W/m2
13:31 20.2 °C -2.8 °C 1021.2 hPa Calm   3.2 km/h 21% 0 mm 563.0 W/m2
13:38 20.4 °C -3.3 °C 1021.2 hPa WSW 6.4 km/h 14.5 km/h 20% 0 mm 552.0 W/m2
13:50 20.4 °C -3.3 °C 1020.9 hPa Calm     20% 0 mm 538.0 W/m2
14:00 20.8 °C -4.4 °C 1020.9 hPa WSW 6.4 km/h 9.7 km/h 18% 0 mm 519.0 W/m2
14:11 21.2 °C -4.1 °C 1020.9 hPa WSW 3.2 km/h 8 km/h 18% 0 mm 501.0 W/m2
14:24 21.7 °C -4.4 °C 1020.5 hPa WSW 6.4 km/h 11.3 km/h 17% 0 mm 466.0 W/m2
14:33 21.6 °C -4.5 °C 1020.5 hPa Calm     17% 0 mm 441.0 W/m2
14:42 22.1 °C -4.1 °C 1020.5 hPa WSW 6.4 km/h 9.7 km/h 17% 0 mm 424.0 W/m2
14:47 22.1 °C -4.1 °C 1020.5 hPa Calm     17% 0 mm 406.0 W/m2
14:58 22.3 °C -7.5 °C 1020.5 hPa Calm   12.9 km/h 13% 0 mm 381.0 W/m2
15:03 22.3 °C -6.5 °C 1020.5 hPa Calm     14% 0 mm 367.0 W/m2
15:13 22.7 °C -7.1 °C 1020.5 hPa Calm     13% 0 mm 341.0 W/m2
15:20 22.7 °C -7.1 °C 1020.5 hPa WSW 3.2 km/h 6.4 km/h 13% 0 mm 329.0 W/m2
15:26 22.8 °C -7.1 °C 1020.5 hPa Calm     13% 0 mm 313.0 W/m2
15:48 22.6 °C -8.3 °C 1020.5 hPa Calm   6.4 km/h 12% 0 mm 251.0 W/m2
16:13 22.7 °C -8.2 °C 1020.9 hPa Calm     12% 0 mm 160.0 W/m2
16:21 22.3 °C -8.5 °C 1020.9 hPa Calm     12% 0 mm 120.0 W/m2
16:29 22.1 °C -7.6 °C 1020.9 hPa Calm     13% 0 mm 84.0 W/m2
16:36 22.1 °C -7.6 °C 1020.9 hPa Calm     13% 0 mm 72.0 W/m2
16:45 22.1 °C -7.6 °C 1020.9 hPa Calm     13% 0 mm 40.0 W/m2
16:55 21.7 °C -7 °C 1020.9 hPa Calm     14% 0 mm 14.0 W/m2
17:17 20.3 °C -7.2 °C 1020.9 hPa Calm     15% 0 mm 0.0 W/m2
17:36 18.8 °C -8.4 °C 1020.9 hPa Calm     15% 0 mm 0.0 W/m2
17:44 18.2 °C -8.1 °C 1020.9 hPa Calm     16% 0 mm 0.0 W/m2
17:54 17 °C -9 °C 1020.9 hPa Calm     16% 0 mm 0.0 W/m2
18:02 16.2 °C -8.2 °C 1021.2 hPa Calm     18% 0 mm 0.0 W/m2
18:09 16.2 °C -8.2 °C 1021.2 hPa Calm     18% 0 mm 0.0 W/m2
18:14 15.9 °C -9.1 °C 1021.2 hPa Calm     17% 0 mm 0.0 W/m2
18:20 15.4 °C -8.8 °C 1021.2 hPa Calm     18% 0 mm 0.0 W/m2
18:26 14.9 °C -9.2 °C 1021.2 hPa Calm     18% 0 mm 0.0 W/m2
18:32 14.2 °C -9.8 °C 1021.6 hPa Calm     18% 0 mm 0.0 W/m2
18:59 13.1 °C -9.4 °C 1021.6 hPa Calm     20% 0 mm 0.0 W/m2
19:14 12.9 °C -8.3 °C 1021.6 hPa Calm     22% 0 mm 0.0 W/m2
19:36 12.5 °C -8.7 °C 1021.6 hPa Calm     22% 0 mm 0.0 W/m2
19:51 12.5 °C -8.1 °C 1021.6 hPa Calm     23% 0 mm 0.0 W/m2
20:06 13.2 °C -7.5 °C 1021.9 hPa Calm     23% 0 mm 0.0 W/m2
20:19 12.9 °C -8.3 °C 1021.9 hPa Calm     22% 0 mm 0.0 W/m2
20:28 12.3 °C -8.3 °C 1021.9 hPa Calm     23% 0 mm 0.0 W/m2
20:37 12.7 °C -8.5 °C 1021.9 hPa Calm     22% 0 mm 0.0 W/m2
20:42 12.7 °C -8.5 °C 1022.2 hPa Calm     22% 0 mm 0.0 W/m2
20:49 12.4 °C -8.2 °C 1022.2 hPa Calm     23% 0 mm 0.0 W/m2
21:01 11.8 °C -8.7 °C 1022.2 hPa Calm     23% 0 mm 0.0 W/m2
21:12 11.1 °C -8.7 °C 1022.2 hPa Calm     24% 0 mm 0.0 W/m2
21:27 10.4 °C -9.3 °C 1022.2 hPa Calm     24% 0 mm 0.0 W/m2
21:35 10.2 °C -9 °C 1022.2 hPa Calm     25% 0 mm 0.0 W/m2
21:45 10.2 °C -8 °C 1022.2 hPa Calm     27% 0 mm 0.0 W/m2
Canyon Roadhouse, Fishriver Canyon, Namibia
Compliments of Weather Underground - 2.5 mb